sensor_id;sensor_type;location;lat;lon;timestamp;pressure;altitude;pressure_sealevel;temperature;humidity
10712;BME280;5407;51.234;6.804;2023-02-13T00:00:19;103208.75;;;23.90;37.72
10712;BME280;5407;51.234;6.804;2023-02-13T00:02:46;103206.00;;;23.90;37.58
10712;BME280;5407;51.234;6.804;2023-02-13T00:05:13;103203.25;;;23.90;37.68
10712;BME280;5407;51.234;6.804;2023-02-13T00:07:40;103206.00;;;23.90;37.68
10712;BME280;5407;51.234;6.804;2023-02-13T00:10:07;103201.25;;;23.91;37.64
10712;BME280;5407;51.234;6.804;2023-02-13T00:12:36;103204.41;;;23.89;37.47
10712;BME280;5407;51.234;6.804;2023-02-13T00:15:03;103202.00;;;23.88;37.62
10712;BME280;5407;51.234;6.804;2023-02-13T00:17:30;103197.28;;;23.88;37.77
10712;BME280;5407;51.234;6.804;2023-02-13T00:19:57;103193.38;;;23.89;37.71
10712;BME280;5407;51.234;6.804;2023-02-13T00:22:25;103191.75;;;23.88;37.68
10712;BME280;5407;51.234;6.804;2023-02-13T00:24:51;103187.41;;;23.87;37.70
10712;BME280;5407;51.234;6.804;2023-02-13T00:31:08;103183.88;;;23.87;37.56
10712;BME280;5407;51.234;6.804;2023-02-13T00:33:37;103178.34;;;23.87;37.61
10712;BME280;5407;51.234;6.804;2023-02-13T00:36:05;103176.38;;;23.87;37.62
10712;BME280;5407;51.234;6.804;2023-02-13T00:38:33;103173.63;;;23.87;37.56
10712;BME280;5407;51.234;6.804;2023-02-13T00:41:00;103177.56;;;23.86;37.66
10712;BME280;5407;51.234;6.804;2023-02-13T00:43:27;103174.00;;;23.86;37.69
10712;BME280;5407;51.234;6.804;2023-02-13T00:45:56;103179.13;;;23.87;37.39
10712;BME280;5407;51.234;6.804;2023-02-13T00:48:25;103169.28;;;23.86;37.66
10712;BME280;5407;51.234;6.804;2023-02-13T00:50:52;103167.69;;;23.85;37.57
10712;BME280;5407;51.234;6.804;2023-02-13T00:53:19;103163.75;;;23.86;37.46
10712;BME280;5407;51.234;6.804;2023-02-13T00:55:47;103162.97;;;23.86;37.50
10712;BME280;5407;51.234;6.804;2023-02-13T00:58:14;103169.28;;;23.86;37.57
10712;BME280;5407;51.234;6.804;2023-02-13T01:00:42;103164.94;;;23.85;37.48
10712;BME280;5407;51.234;6.804;2023-02-13T01:03:09;103157.81;;;23.84;37.47
10712;BME280;5407;51.234;6.804;2023-02-13T01:05:37;103161.75;;;23.83;37.52
10712;BME280;5407;51.234;6.804;2023-02-13T01:08:04;103170.03;;;23.83;37.48
10712;BME280;5407;51.234;6.804;2023-02-13T01:10:32;103164.50;;;23.83;37.56
10712;BME280;5407;51.234;6.804;2023-02-13T01:12:59;103169.25;;;23.83;37.38
10712;BME280;5407;51.234;6.804;2023-02-13T01:15:25;103167.25;;;23.83;37.45
10712;BME280;5407;51.234;6.804;2023-02-13T01:17:53;103164.50;;;23.83;37.49
10712;BME280;5407;51.234;6.804;2023-02-13T01:20:24;103171.19;;;23.82;37.33
10712;BME280;5407;51.234;6.804;2023-02-13T01:22:53;103157.41;;;23.82;37.41
10712;BME280;5407;51.234;6.804;2023-02-13T01:25:20;103160.97;;;23.83;37.43
10712;BME280;5407;51.234;6.804;2023-02-13T01:27:48;103155.81;;;23.81;37.52
10712;BME280;5407;51.234;6.804;2023-02-13T01:30:17;103164.09;;;23.81;37.50
10712;BME280;5407;51.234;6.804;2023-02-13T01:32:45;103159.38;;;23.82;37.52
10712;BME280;5407;51.234;6.804;2023-02-13T01:35:13;103160.97;;;23.83;37.55
10712;BME280;5407;51.234;6.804;2023-02-13T01:37:41;103160.16;;;23.82;37.53
10712;BME280;5407;51.234;6.804;2023-02-13T01:40:11;103155.47;;;23.83;37.63
10712;BME280;5407;51.234;6.804;2023-02-13T01:42:38;103157.41;;;23.82;37.56
10712;BME280;5407;51.234;6.804;2023-02-13T01:45:18;103158.22;;;23.83;37.40
10712;BME280;5407;51.234;6.804;2023-02-13T01:47:49;103161.34;;;23.81;37.60
10712;BME280;5407;51.234;6.804;2023-02-13T01:50:21;103151.88;;;23.82;37.43
10712;BME280;5407;51.234;6.804;2023-02-13T01:52:54;103154.66;;;23.82;37.49
10712;BME280;5407;51.234;6.804;2023-02-13T01:55:25;103144.44;;;23.83;37.52
10712;BME280;5407;51.234;6.804;2023-02-13T01:57:54;103146.81;;;23.84;37.23
10712;BME280;5407;51.234;6.804;2023-02-13T02:00:24;103155.06;;;23.84;37.28
10712;BME280;5407;51.234;6.804;2023-02-13T02:02:54;103149.56;;;23.84;37.37
10712;BME280;5407;51.234;6.804;2023-02-13T02:05:26;103150.72;;;23.83;37.52
10712;BME280;5407;51.234;6.804;2023-02-13T02:07:55;103151.16;;;23.85;37.67
10712;BME280;5407;51.234;6.804;2023-02-13T02:10:25;103147.22;;;23.86;37.64
10712;BME280;5407;51.234;6.804;2023-02-13T02:13:02;103150.41;;;23.88;37.51
10712;BME280;5407;51.234;6.804;2023-02-13T02:15:31;103151.63;;;23.91;37.50
10712;BME280;5407;51.234;6.804;2023-02-13T02:17:58;103153.22;;;23.92;37.28
10712;BME280;5407;51.234;6.804;2023-02-13T02:20:38;103155.63;;;23.93;37.43
10712;BME280;5407;51.234;6.804;2023-02-13T02:26:56;103154.88;;;23.96;37.28
10712;BME280;5407;51.234;6.804;2023-02-13T02:29:57;103147.78;;;23.95;37.46
10712;BME280;5407;51.234;6.804;2023-02-13T02:32:44;103151.28;;;23.92;37.44
10712;BME280;5407;51.234;6.804;2023-02-13T02:35:23;103150.41;;;23.88;37.62
10712;BME280;5407;51.234;6.804;2023-02-13T02:38:10;103149.97;;;23.86;37.55
10712;BME280;5407;51.234;6.804;2023-02-13T02:40:47;103149.13;;;23.82;37.67
10712;BME280;5407;51.234;6.804;2023-02-13T02:43:27;103142.03;;;23.81;37.55
10712;BME280;5407;51.234;6.804;2023-02-13T02:46:07;103149.06;;;23.79;37.70
10712;BME280;5407;51.234;6.804;2023-02-13T02:48:42;103143.19;;;23.80;37.55
10712;BME280;5407;51.234;6.804;2023-02-13T02:51:39;103145.97;;;23.80;37.67
10712;BME280;5407;51.234;6.804;2023-02-13T02:54:13;103152.19;;;23.77;37.66
10712;BME280;5407;51.234;6.804;2023-02-13T02:57:05;103142.75;;;23.78;37.60
10712;BME280;5407;51.234;6.804;2023-02-13T02:59:35;103143.56;;;23.79;37.62
10712;BME280;5407;51.234;6.804;2023-02-13T03:02:29;103142.38;;;23.80;37.44
10712;BME280;5407;51.234;6.804;2023-02-13T03:05:29;103141.56;;;23.79;37.48
10712;BME280;5407;51.234;6.804;2023-02-13T03:08:15;103143.56;;;23.79;37.61
10712;BME280;5407;51.234;6.804;2023-02-13T03:11:03;103138.81;;;23.79;37.55
10712;BME280;5407;51.234;6.804;2023-02-13T03:13:48;103143.56;;;23.79;37.49
10712;BME280;5407;51.234;6.804;2023-02-13T03:16:17;103151.81;;;23.79;37.49
10712;BME280;5407;51.234;6.804;2023-02-13T03:19:03;103150.59;;;23.76;37.58
10712;BME280;5407;51.234;6.804;2023-02-13T03:21:52;103143.50;;;23.75;37.50
10712;BME280;5407;51.234;6.804;2023-02-13T03:24:46;103144.31;;;23.76;37.44
10712;BME280;5407;51.234;6.804;2023-02-13T03:27:25;103145.09;;;23.76;37.50
10712;BME280;5407;51.234;6.804;2023-02-13T03:30:16;103145.09;;;23.76;37.54
10712;BME280;5407;51.234;6.804;2023-02-13T03:32:49;103149.00;;;23.75;37.48
10712;BME280;5407;51.234;6.804;2023-02-13T03:35:23;103143.50;;;23.75;37.45
10712;BME280;5407;51.234;6.804;2023-02-13T03:38:17;103141.13;;;23.74;37.50
10712;BME280;5407;51.234;6.804;2023-02-13T03:40:49;103132.03;;;23.73;37.66
10712;BME280;5407;51.234;6.804;2023-02-13T03:43:39;103140.31;;;23.73;37.65
10712;BME280;5407;51.234;6.804;2023-02-13T03:46:09;103140.31;;;23.73;37.42
10712;BME280;5407;51.234;6.804;2023-02-13T03:48:38;103144.22;;;23.73;37.59
10712;BME280;5407;51.234;6.804;2023-02-13T03:51:26;103141.47;;;23.73;37.65
10712;BME280;5407;51.234;6.804;2023-02-13T03:54:00;103146.56;;;23.71;37.38
10712;BME280;5407;51.234;6.804;2023-02-13T03:56:29;103144.22;;;23.73;37.60
10712;BME280;5407;51.234;6.804;2023-02-13T03:59:20;103146.22;;;23.72;37.66
10712;BME280;5407;51.234;6.804;2023-02-13T04:01:54;103146.22;;;23.72;37.50
10712;BME280;5407;51.234;6.804;2023-02-13T04:04:31;103160.78;;;23.73;37.43
10712;BME280;5407;51.234;6.804;2023-02-13T04:07:02;103146.56;;;23.71;37.49
10712;BME280;5407;51.234;6.804;2023-02-13T04:09:34;103146.56;;;23.71;37.46
10712;BME280;5407;51.234;6.804;2023-02-13T04:12:08;103152.09;;;23.71;37.62
10712;BME280;5407;51.234;6.804;2023-02-13T04:14:42;103151.31;;;23.70;37.41
10712;BME280;5407;51.234;6.804;2023-02-13T04:17:16;103154.41;;;23.69;37.62
10712;BME280;5407;51.234;6.804;2023-02-13T04:19:45;103153.25;;;23.70;37.42
10712;BME280;5407;51.234;6.804;2023-02-13T04:22:12;103148.13;;;23.68;37.62
10712;BME280;5407;51.234;6.804;2023-02-13T04:24:40;103145.72;;;23.67;37.53
10712;BME280;5407;51.234;6.804;2023-02-13T04:27:09;103152.81;;;23.68;37.43
10712;BME280;5407;51.234;6.804;2023-02-13T04:29:38;103150.06;;;23.68;37.42
10712;BME280;5407;51.234;6.804;2023-02-13T04:32:05;103151.59;;;23.65;37.51
10712;BME280;5407;51.234;6.804;2023-02-13T04:34:32;103146.88;;;23.66;37.65
10712;BME280;5407;51.234;6.804;2023-02-13T04:36:59;103149.66;;;23.66;37.49
10712;BME280;5407;51.234;6.804;2023-02-13T04:39:26;103153.16;;;23.63;37.66
10712;BME280;5407;51.234;6.804;2023-02-13T04:41:54;103153.50;;;23.61;37.63
10712;BME280;5407;51.234;6.804;2023-02-13T04:44:21;103141.69;;;23.61;37.74
10712;BME280;5407;51.234;6.804;2023-02-13T04:46:47;103146.16;;;23.69;37.56
10712;BME280;5407;51.234;6.804;2023-02-13T04:49:14;103140.16;;;23.63;37.59
10712;BME280;5407;51.234;6.804;2023-02-13T04:51:41;103144.13;;;23.66;37.58
10712;BME280;5407;51.234;6.804;2023-02-13T04:54:09;103137.53;;;23.70;37.69
10712;BME280;5407;51.234;6.804;2023-02-13T04:56:36;103142.72;;;23.75;37.70
10712;BME280;5407;51.234;6.804;2023-02-13T04:59:04;103134.88;;;23.77;37.68
10712;BME280;5407;51.234;6.804;2023-02-13T05:01:31;103144.34;;;23.79;37.55
10712;BME280;5407;51.234;6.804;2023-02-13T05:03:58;103142.03;;;23.81;37.73
10712;BME280;5407;51.234;6.804;2023-02-13T05:06:25;103137.31;;;23.82;37.74
10712;BME280;5407;51.234;6.804;2023-02-13T05:08:52;103140.44;;;23.80;37.83
10712;BME280;5407;51.234;6.804;2023-02-13T05:11:19;103134.47;;;23.78;37.92
10712;BME280;5407;51.234;6.804;2023-02-13T05:13:45;103143.81;;;23.71;38.02
10712;BME280;5407;51.234;6.804;2023-02-13T05:16:14;103142.97;;;23.67;38.17
10712;BME280;5407;51.234;6.804;2023-02-13T05:18:40;103143.31;;;23.65;37.99
10712;BME280;5407;51.234;6.804;2023-02-13T05:21:07;103140.94;;;23.64;38.06
10712;BME280;5407;51.234;6.804;2023-02-13T05:23:52;103146.47;;;23.64;38.06
10712;BME280;5407;51.234;6.804;2023-02-13T05:26:18;103138.94;;;23.61;38.17
10712;BME280;5407;51.234;6.804;2023-02-13T05:28:45;103142.06;;;23.59;38.14
10712;BME280;5407;51.234;6.804;2023-02-13T05:31:31;103137.34;;;23.60;38.09
10712;BME280;5407;51.234;6.804;2023-02-13T05:33:58;103132.19;;;23.58;38.08
10712;BME280;5407;51.234;6.804;2023-02-13T05:36:25;103136.94;;;23.58;38.12
10712;BME280;5407;51.234;6.804;2023-02-13T05:38:52;103138.53;;;23.59;37.95
10712;BME280;5407;51.234;6.804;2023-02-13T05:41:19;103135.75;;;23.59;38.04
10712;BME280;5407;51.234;6.804;2023-02-13T05:43:46;103141.28;;;23.59;38.03
10712;BME280;5407;51.234;6.804;2023-02-13T05:46:12;103138.88;;;23.57;38.09
10712;BME280;5407;51.234;6.804;2023-02-13T05:48:41;103142.03;;;23.56;38.04
10712;BME280;5407;51.234;6.804;2023-02-13T05:51:08;103138.88;;;23.57;38.03
10712;BME280;5407;51.234;6.804;2023-02-13T05:53:34;103138.09;;;23.57;38.06
10712;BME280;5407;51.234;6.804;2023-02-13T05:56:01;103139.25;;;23.56;37.96
10712;BME280;5407;51.234;6.804;2023-02-13T05:58:28;103140.84;;;23.57;38.00
10712;BME280;5407;51.234;6.804;2023-02-13T06:00:56;103132.16;;;23.55;38.07
10712;BME280;5407;51.234;6.804;2023-02-13T06:03:24;103131.00;;;23.56;38.03
10712;BME280;5407;51.234;6.804;2023-02-13T06:05:53;103125.84;;;23.54;38.03
10712;BME280;5407;51.234;6.804;2023-02-13T06:08:20;103128.25;;;23.56;37.89
10712;BME280;5407;51.234;6.804;2023-02-13T06:10:47;103122.31;;;23.54;37.93
10712;BME280;5407;51.234;6.804;2023-02-13T06:13:15;103122.72;;;23.56;38.01
10712;BME280;5407;51.234;6.804;2023-02-13T06:15:42;103121.13;;;23.55;37.89
10712;BME280;5407;51.234;6.804;2023-02-13T06:18:10;103123.91;;;23.55;37.90
10712;BME280;5407;51.234;6.804;2023-02-13T06:20:37;103112.44;;;23.53;37.78
10712;BME280;5407;51.234;6.804;2023-02-13T06:23:05;103119.53;;;23.54;37.81
10712;BME280;5407;51.234;6.804;2023-02-13T06:25:33;103127.38;;;23.52;37.93
10712;BME280;5407;51.234;6.804;2023-02-13T06:28:00;103123.47;;;23.53;37.88
10712;BME280;5407;51.234;6.804;2023-02-13T06:30:27;103121.88;;;23.52;37.84
10712;BME280;5407;51.234;6.804;2023-02-13T06:32:53;103128.56;;;23.51;37.97
10712;BME280;5407;51.234;6.804;2023-02-13T06:35:20;103128.56;;;23.51;37.95
10712;BME280;5407;51.234;6.804;2023-02-13T06:37:47;103131.31;;;23.51;37.96
10712;BME280;5407;51.234;6.804;2023-02-13T06:40:16;103121.06;;;23.51;37.84
10712;BME280;5407;51.234;6.804;2023-02-13T06:42:43;103129.75;;;23.53;37.82
10712;BME280;5407;51.234;6.804;2023-02-13T06:45:11;103125.06;;;23.54;37.79
10712;BME280;5407;51.234;6.804;2023-02-13T06:47:40;103126.22;;;23.53;37.73
10712;BME280;5407;51.234;6.804;2023-02-13T06:50:08;103125.81;;;23.51;37.73
10712;BME280;5407;51.234;6.804;2023-02-13T06:52:35;103126.22;;;23.53;37.68
10712;BME280;5407;51.234;6.804;2023-02-13T06:55:03;103125.81;;;23.51;37.71
10712;BME280;5407;51.234;6.804;2023-02-13T06:57:31;103128.13;;;23.49;37.88
10712;BME280;5407;51.234;6.804;2023-02-13T06:59:58;103127.31;;;23.48;37.76
10712;BME280;5407;51.234;6.804;2023-02-13T07:02:25;103132.84;;;23.48;37.72
10712;BME280;5407;51.234;6.804;2023-02-13T07:04:52;103126.97;;;23.50;37.64
10712;BME280;5407;51.234;6.804;2023-02-13T07:07:19;103138.41;;;23.52;37.73
10712;BME280;5407;51.234;6.804;2023-02-13T07:09:46;103125.84;;;23.54;37.59
10712;BME280;5407;51.234;6.804;2023-02-13T07:12:12;103141.59;;;23.54;37.58
10712;BME280;5407;51.234;6.804;2023-02-13T07:14:41;103135.66;;;23.52;37.61
10712;BME280;5407;51.234;6.804;2023-02-13T07:17:07;103138.84;;;23.54;37.56
10712;BME280;5407;51.234;6.804;2023-02-13T07:19:35;103125.00;;;23.50;37.67
10712;BME280;5407;51.234;6.804;2023-02-13T07:22:02;103135.59;;;23.48;37.68
10712;BME280;5407;51.234;6.804;2023-02-13T07:24:29;103132.47;;;23.50;37.66
10712;BME280;5407;51.234;6.804;2023-02-13T07:26:58;103136.00;;;23.50;37.58
10712;BME280;5407;51.234;6.804;2023-02-13T07:29:24;103139.56;;;23.51;37.63
10712;BME280;5407;51.234;6.804;2023-02-13T07:31:53;103136.81;;;23.51;37.57
10712;BME280;5407;51.234;6.804;2023-02-13T07:34:20;103139.56;;;23.51;37.64
10712;BME280;5407;51.234;6.804;2023-02-13T07:36:47;103142.25;;;23.47;37.78
10712;BME280;5407;51.234;6.804;2023-02-13T07:39:14;103140.31;;;23.48;37.68
10712;BME280;5407;51.234;6.804;2023-02-13T07:41:41;103144.66;;;23.49;37.70
10712;BME280;5407;51.234;6.804;2023-02-13T07:44:07;103147.00;;;23.47;37.82
10712;BME280;5407;51.234;6.804;2023-02-13T07:46:34;103147.78;;;23.47;37.78
10712;BME280;5407;51.234;6.804;2023-02-13T07:49:03;103148.94;;;23.46;37.82
10712;BME280;5407;51.234;6.804;2023-02-13T07:51:30;103152.53;;;23.50;37.79
10712;BME280;5407;51.234;6.804;2023-02-13T07:53:56;103156.13;;;23.51;37.68
10712;BME280;5407;51.234;6.804;2023-02-13T07:56:23;103160.03;;;23.50;37.75
10712;BME280;5407;51.234;6.804;2023-02-13T07:58:50;103161.19;;;23.49;37.75
10712;BME280;5407;51.234;6.804;2023-02-13T08:01:17;103161.94;;;23.46;37.90
10712;BME280;5407;51.234;6.804;2023-02-13T08:03:47;103159.97;;;23.46;37.75
10712;BME280;5407;51.234;6.804;2023-02-13T08:06:16;103158.44;;;23.49;37.79
10712;BME280;5407;51.234;6.804;2023-02-13T08:08:44;103148.59;;;23.48;37.75
10712;BME280;5407;51.234;6.804;2023-02-13T08:11:21;103161.19;;;23.49;37.91
10712;BME280;5407;51.234;6.804;2023-02-13T08:14:07;103157.69;;;23.52;37.74
10712;BME280;5407;51.234;6.804;2023-02-13T08:16:34;103156.47;;;23.49;37.87
10712;BME280;5407;51.234;6.804;2023-02-13T08:19:01;103151.75;;;23.50;37.64
10712;BME280;5407;51.234;6.804;2023-02-13T08:21:29;103158.44;;;23.49;37.80
10712;BME280;5407;51.234;6.804;2023-02-13T08:23:57;103159.22;;;23.49;37.75
10712;BME280;5407;51.234;6.804;2023-02-13T08:26:24;103149.78;;;23.50;37.62
10712;BME280;5407;51.234;6.804;2023-02-13T08:28:51;103150.59;;;23.51;37.76
10712;BME280;5407;51.234;6.804;2023-02-13T08:31:18;103157.31;;;23.53;37.59
10712;BME280;5407;51.234;6.804;2023-02-13T08:33:44;103162.16;;;23.60;37.47
10712;BME280;5407;51.234;6.804;2023-02-13T08:36:11;103158.22;;;23.61;37.49
10712;BME280;5407;51.234;6.804;2023-02-13T08:38:40;103163.75;;;23.61;37.51
10712;BME280;5407;51.234;6.804;2023-02-13T08:41:07;103166.19;;;23.66;37.48
10712;BME280;5407;51.234;6.804;2023-02-13T08:43:34;103158.34;;;23.68;37.17
10712;BME280;5407;51.234;6.804;2023-02-13T08:46:01;103157.59;;;23.71;37.28
10712;BME280;5407;51.234;6.804;2023-02-13T08:48:28;103164.34;;;23.73;37.25
10712;BME280;5407;51.234;6.804;2023-02-13T08:50:55;103158.44;;;23.74;37.29
10712;BME280;5407;51.234;6.804;2023-02-13T08:53:22;103165.53;;;23.75;37.57
10712;BME280;5407;51.234;6.804;2023-02-13T08:55:54;103158.41;;;23.71;37.56
10712;BME280;5407;51.234;6.804;2023-02-13T08:58:22;103162.25;;;23.67;37.92
10712;BME280;5407;51.234;6.804;2023-02-13T09:00:48;103157.50;;;23.64;37.96
10712;BME280;5407;51.234;6.804;2023-02-13T09:03:15;103163.00;;;23.64;37.97
10712;BME280;5407;51.234;6.804;2023-02-13T09:05:42;103166.13;;;23.62;38.05
10712;BME280;5407;51.234;6.804;2023-02-13T09:08:10;103153.88;;;23.60;38.16
10712;BME280;5407;51.234;6.804;2023-02-13T09:10:38;103157.44;;;23.60;38.00
10712;BME280;5407;51.234;6.804;2023-02-13T09:13:07;103166.06;;;23.59;38.09
10712;BME280;5407;51.234;6.804;2023-02-13T09:15:37;103166.94;;;23.63;37.98
10712;BME280;5407;51.234;6.804;2023-02-13T09:18:04;103163.75;;;23.61;37.94
10712;BME280;5407;51.234;6.804;2023-02-13T09:20:31;103153.50;;;23.61;37.88
10712;BME280;5407;51.234;6.804;2023-02-13T09:22:57;103160.59;;;23.62;37.89
10712;BME280;5407;51.234;6.804;2023-02-13T09:25:24;103164.16;;;23.63;37.83
10712;BME280;5407;51.234;6.804;2023-02-13T09:27:51;103162.19;;;23.63;37.88
10712;BME280;5407;51.234;6.804;2023-02-13T09:30:20;103159.81;;;23.62;38.11
10712;BME280;5407;51.234;6.804;2023-02-13T09:32:49;103168.50;;;23.64;37.92
10712;BME280;5407;51.234;6.804;2023-02-13T09:35:16;103166.94;;;23.63;37.90
10712;BME280;5407;51.234;6.804;2023-02-13T09:37:43;103164.59;;;23.65;37.75
10712;BME280;5407;51.234;6.804;2023-02-13T09:40:17;103158.34;;;23.68;37.65
10712;BME280;5407;51.234;6.804;2023-02-13T09:42:46;103169.38;;;23.68;37.66
10712;BME280;5407;51.234;6.804;2023-02-13T09:45:16;103170.94;;;23.69;37.63
10712;BME280;5407;51.234;6.804;2023-02-13T09:47:47;103167.88;;;23.73;37.64
10712;BME280;5407;51.234;6.804;2023-02-13T09:50:18;103165.97;;;23.77;37.68
10712;BME280;5407;51.234;6.804;2023-02-13T09:52:48;103169.53;;;23.78;37.71
10712;BME280;5407;51.234;6.804;2023-02-13T09:55:17;103169.53;;;23.78;37.68
10712;BME280;5407;51.234;6.804;2023-02-13T09:57:51;103170.31;;;23.78;37.64
10712;BME280;5407;51.234;6.804;2023-02-13T10:00:28;103175.13;;;23.81;37.61
10712;BME280;5407;51.234;6.804;2023-02-13T10:03:27;103175.53;;;23.83;37.45
10712;BME280;5407;51.234;6.804;2023-02-13T10:06:01;103171.19;;;23.82;37.54
10712;BME280;5407;51.234;6.804;2023-02-13T10:08:48;103178.28;;;23.83;37.67
10712;BME280;5407;51.234;6.804;2023-02-13T10:11:36;103175.97;;;23.85;37.59
10712;BME280;5407;51.234;6.804;2023-02-13T10:14:13;103170.44;;;23.85;37.68
10712;BME280;5407;51.234;6.804;2023-02-13T10:16:42;103177.41;;;23.79;37.89
10712;BME280;5407;51.234;6.804;2023-02-13T10:19:18;103172.66;;;23.76;37.73
10712;BME280;5407;51.234;6.804;2023-02-13T10:21:53;103182.81;;;23.73;37.81
10712;BME280;5407;51.234;6.804;2023-02-13T10:24:29;103180.81;;;23.70;37.88
10712;BME280;5407;51.234;6.804;2023-02-13T10:26:58;103179.97;;;23.66;37.92
10712;BME280;5407;51.234;6.804;2023-02-13T10:29:35;103177.63;;;23.68;37.96
10712;BME280;5407;51.234;6.804;2023-02-13T10:32:21;103179.16;;;23.65;37.74
10712;BME280;5407;51.234;6.804;2023-02-13T10:34:54;103179.53;;;23.64;37.99
10712;BME280;5407;51.234;6.804;2023-02-13T10:37:23;103177.94;;;23.63;38.07
10712;BME280;5407;51.234;6.804;2023-02-13T10:39:51;103175.94;;;23.60;38.21
10712;BME280;5407;51.234;6.804;2023-02-13T10:42:21;103171.19;;;23.60;38.07
10712;BME280;5407;51.234;6.804;2023-02-13T10:44:58;103174.34;;;23.59;38.14
10712;BME280;5407;51.234;6.804;2023-02-13T10:47:42;103181.03;;;23.58;38.16
10712;BME280;5407;51.234;6.804;2023-02-13T10:50:22;103179.44;;;23.57;38.32
10712;BME280;5407;51.234;6.804;2023-02-13T10:53:02;103175.50;;;23.58;38.21
10712;BME280;5407;51.234;6.804;2023-02-13T10:55:59;103173.91;;;23.57;38.17
10712;BME280;5407;51.234;6.804;2023-02-13T10:58:41;103171.16;;;23.57;38.25
10712;BME280;5407;51.234;6.804;2023-02-13T11:01:16;103166.81;;;23.56;38.24
10712;BME280;5407;51.234;6.804;2023-02-13T11:03:45;103162.47;;;23.55;38.22
10712;BME280;5407;51.234;6.804;2023-02-13T11:06:16;103155.00;;;23.55;38.22
10712;BME280;5407;51.234;6.804;2023-02-13T11:08:46;103155.00;;;23.55;38.18
10712;BME280;5407;51.234;6.804;2023-02-13T11:11:30;103144.03;;;23.59;38.20
10712;BME280;5407;51.234;6.804;2023-02-13T11:14:08;103149.53;;;23.59;38.33
10712;BME280;5407;51.234;6.804;2023-02-13T11:16:47;103151.13;;;23.60;38.47
10712;BME280;5407;51.234;6.804;2023-02-13T11:19:21;103140.09;;;23.60;38.43
10712;BME280;5407;51.234;6.804;2023-02-13T11:21:56;103135.38;;;23.60;38.56
10712;BME280;5407;51.234;6.804;2023-02-13T11:24:25;103136.19;;;23.61;38.50
10712;BME280;5407;51.234;6.804;2023-02-13T11:26:57;103123.56;;;23.60;38.60
10712;BME280;5407;51.234;6.804;2023-02-13T11:29:27;103121.25;;;23.62;38.65
10712;BME280;5407;51.234;6.804;2023-02-13T11:32:14;103112.59;;;23.63;38.61
10712;BME280;5407;51.234;6.804;2023-02-13T11:34:43;103118.91;;;23.64;38.63
10712;BME280;5407;51.234;6.804;2023-02-13T11:37:17;103120.50;;;23.65;38.63
10712;BME280;5407;51.234;6.804;2023-02-13T11:39:46;103121.28;;;23.65;38.69
10712;BME280;5407;51.234;6.804;2023-02-13T11:42:14;103119.31;;;23.66;38.67
10712;BME280;5407;51.234;6.804;2023-02-13T11:44:47;103113.47;;;23.67;38.59
10712;BME280;5407;51.234;6.804;2023-02-13T11:47:15;103110.69;;;23.67;38.58
10712;BME280;5407;51.234;6.804;2023-02-13T11:49:45;103113.06;;;23.69;38.70
10712;BME280;5407;51.234;6.804;2023-02-13T11:52:23;103106.38;;;23.70;38.58
10712;BME280;5407;51.234;6.804;2023-02-13T11:54:56;103107.19;;;23.70;38.63
10712;BME280;5407;51.234;6.804;2023-02-13T11:57:28;103105.66;;;23.73;38.51
10712;BME280;5407;51.234;6.804;2023-02-13T11:59:56;103097.00;;;23.74;38.65
10712;BME280;5407;51.234;6.804;2023-02-13T12:02:25;103095.03;;;23.74;38.72
10712;BME280;5407;51.234;6.804;2023-02-13T12:04:54;103088.34;;;23.75;38.62
10712;BME280;5407;51.234;6.804;2023-02-13T12:07:24;103089.94;;;23.76;38.56
10712;BME280;5407;51.234;6.804;2023-02-13T12:09:56;103086.03;;;23.77;38.68
10712;BME280;5407;51.234;6.804;2023-02-13T12:12:32;103081.31;;;23.78;38.63
10712;BME280;5407;51.234;6.804;2023-02-13T12:15:03;103077.38;;;23.79;38.74
10712;BME280;5407;51.234;6.804;2023-02-13T12:17:38;103078.16;;;23.79;38.50
10712;BME280;5407;51.234;6.804;2023-02-13T12:20:12;103079.78;;;23.80;38.73
10712;BME280;5407;51.234;6.804;2023-02-13T12:22:47;103078.63;;;23.81;38.81
10712;BME280;5407;51.234;6.804;2023-02-13T12:25:41;103062.50;;;23.83;38.68
10712;BME280;5407;51.234;6.804;2023-02-13T12:28:12;103061.31;;;23.84;38.79
10712;BME280;5407;51.234;6.804;2023-02-13T12:34:12;103059.78;;;23.87;38.78
10712;BME280;5407;51.234;6.804;2023-02-13T12:36:53;103051.13;;;23.88;38.54
10712;BME280;5407;51.234;6.804;2023-02-13T12:39:30;103052.38;;;23.91;38.60
10712;BME280;5407;51.234;6.804;2023-02-13T12:42:08;103053.16;;;23.91;38.72
10712;BME280;5407;51.234;6.804;2023-02-13T12:44:50;103046.50;;;23.92;38.51
10712;BME280;5407;51.234;6.804;2023-02-13T12:47:22;103055.19;;;23.94;38.62
10712;BME280;5407;51.234;6.804;2023-02-13T12:50:22;103042.97;;;23.95;38.58
10712;BME280;5407;51.234;6.804;2023-02-13T12:53:05;103041.38;;;23.94;38.70
10712;BME280;5407;51.234;6.804;2023-02-13T12:56:06;103038.25;;;23.96;38.76
10712;BME280;5407;51.234;6.804;2023-02-13T12:58:52;103042.97;;;23.95;38.73
10712;BME280;5407;51.234;6.804;2023-02-13T13:01:38;103040.22;;;23.95;38.73
10712;BME280;5407;51.234;6.804;2023-02-13T13:04:17;103039.81;;;23.97;38.41
10712;BME280;5407;51.234;6.804;2023-02-13T13:06:58;103039.91;;;24.04;38.56
10712;BME280;5407;51.234;6.804;2023-02-13T13:12:29;103027.47;;;24.17;38.71
10712;BME280;5407;51.234;6.804;2023-02-13T13:15:07;103027.50;;;24.20;38.69
10712;BME280;5407;51.234;6.804;2023-02-13T13:17:45;103025.97;;;24.26;38.61
10712;BME280;5407;51.234;6.804;2023-02-13T13:20:38;103027.22;;;24.32;38.40
10712;BME280;5407;51.234;6.804;2023-02-13T13:23:10;103017.41;;;24.35;38.37
10712;BME280;5407;51.234;6.804;2023-02-13T13:25:47;103014.69;;;24.38;38.63
10712;BME280;5407;51.234;6.804;2023-02-13T13:28:20;103004.50;;;24.42;38.42
10712;BME280;5407;51.234;6.804;2023-02-13T13:30:48;103010.41;;;24.44;38.50
10712;BME280;5407;51.234;6.804;2023-02-13T13:33:17;103006.50;;;24.45;38.54
10712;BME280;5407;51.234;6.804;2023-02-13T13:35:52;103008.06;;;24.46;38.33
10712;BME280;5407;51.234;6.804;2023-02-13T13:38:28;103001.38;;;24.47;38.51